createdAt,value
2022-12-01T00:00:09.932Z,10.57
2022-12-01T00:02:14.250Z,10.82
2022-12-01T00:04:15.886Z,11.80
2022-12-01T00:06:21.077Z,10.75
2022-12-01T00:08:23.119Z,10.50
2022-12-01T00:10:28.765Z,10.63
2022-12-01T00:12:31.410Z,10.75
2022-12-01T00:14:32.966Z,10.20
2022-12-01T00:16:34.779Z,10.27
2022-12-01T00:18:36.374Z,10.50
2022-12-01T00:20:38.350Z,9.25
2022-12-01T00:22:45.195Z,10.43
2022-12-01T00:24:46.864Z,9.98
2022-12-01T00:26:48.623Z,9.88
2022-12-01T00:28:51.873Z,9.73
2022-12-01T00:30:53.318Z,9.65
2022-12-01T00:32:54.919Z,9.88
2022-12-01T00:34:56.595Z,9.70
2022-12-01T00:36:58.227Z,10.27
2022-12-01T00:38:59.972Z,10.20
2022-12-01T00:41:01.826Z,10.40
2022-12-01T00:43:03.381Z,9.73
2022-12-01T00:45:05.963Z,9.43
2022-12-01T00:47:08.086Z,10.02
2022-12-01T00:49:12.748Z,10.15
2022-12-01T00:51:14.282Z,8.98
2022-12-01T00:53:16.077Z,10.48
2022-12-01T00:55:21.143Z,9.70
2022-12-01T00:57:22.836Z,9.65
2022-12-01T00:59:24.769Z,10.00
2022-12-01T01:01:26.584Z,10.52
2022-12-01T01:03:30.035Z,9.90
2022-12-01T01:05:36.000Z,10.15
2022-12-01T01:07:37.623Z,9.93
2022-12-01T01:09:39.298Z,9.90
2022-12-01T01:11:41.985Z,10.07
2022-12-01T01:13:45.043Z,9.82
2022-12-01T01:15:58.339Z,9.60
2022-12-01T01:18:00.974Z,10.15
2022-12-01T01:20:04.637Z,10.60
2022-12-01T01:22:06.820Z,10.20
2022-12-01T01:24:08.507Z,9.73
2022-12-01T01:26:23.315Z,10.35
2022-12-01T01:28:24.904Z,9.68
2022-12-01T01:30:27.252Z,9.52
2022-12-01T01:32:28.932Z,11.02
2022-12-01T01:34:33.661Z,10.70
2022-12-01T01:36:35.130Z,9.80
2022-12-01T01:38:37.292Z,10.20
2022-12-01T01:40:49.134Z,10.38
2022-12-01T01:42:50.801Z,10.20
2022-12-01T01:44:55.583Z,9.90
2022-12-01T01:46:57.124Z,9.57
2022-12-01T01:49:14.766Z,10.48
2022-12-01T01:51:20.823Z,11.60
2022-12-01T01:53:24.959Z,9.93
2022-12-01T01:55:28.720Z,10.13
2022-12-01T01:57:33.120Z,11.13
2022-12-01T01:59:45.822Z,10.48
2022-12-01T02:01:52.026Z,10.38
2022-12-01T02:03:56.270Z,10.52
2022-12-01T02:06:03.444Z,11.68
2022-12-01T02:08:12.304Z,11.40
2022-12-01T02:10:15.333Z,11.20
2022-12-01T02:12:31.346Z,10.57
2022-12-01T02:14:50.071Z,11.10
2022-12-01T02:17:05.834Z,10.15
2022-12-01T02:19:49.834Z,11.05
2022-12-01T02:22:04.856Z,9.50
2022-12-01T02:24:52.284Z,10.50
2022-12-01T02:27:04.837Z,10.55
2022-12-01T02:29:37.347Z,9.77
2022-12-01T02:31:56.862Z,9.77
2022-12-01T02:34:09.781Z,10.35
2022-12-01T02:36:19.981Z,10.52
2022-12-01T02:38:30.829Z,10.82
2022-12-01T02:40:47.026Z,10.60
2022-12-01T02:43:05.558Z,10.20
2022-12-01T02:45:14.015Z,10.32
2022-12-01T02:47:18.094Z,10.05
2022-12-01T02:49:26.235Z,10.25
2022-12-01T02:51:34.198Z,9.88
2022-12-01T02:53:36.133Z,10.63
2022-12-01T02:55:47.106Z,10.65
2022-12-01T02:57:48.677Z,10.45
2022-12-01T02:59:55.221Z,10.45
2022-12-01T03:02:15.894Z,10.90
2022-12-01T03:04:33.933Z,10.85
2022-12-01T03:06:38.701Z,10.80
2022-12-01T03:08:52.964Z,10.48
2022-12-01T03:10:58.229Z,10.68
2022-12-01T03:13:22.013Z,9.75
2022-12-01T03:15:36.039Z,10.68
2022-12-01T03:18:16.544Z,10.13
2022-12-01T03:20:29.355Z,10.05
2022-12-01T03:22:43.807Z,10.13
2022-12-01T03:24:48.362Z,9.90
2022-12-01T03:27:01.499Z,10.45
2022-12-01T03:29:10.410Z,10.38
2022-12-01T03:31:18.161Z,10.88
2022-12-01T03:33:28.666Z,10.20
2022-12-01T03:35:38.915Z,9.82
2022-12-01T03:37:43.942Z,9.93
2022-12-01T03:39:48.644Z,10.88
2022-12-01T03:41:59.882Z,10.10
2022-12-01T03:44:12.470Z,10.07
2022-12-01T03:46:33.039Z,9.82
2022-12-01T03:48:35.232Z,9.10
2022-12-01T03:50:51.743Z,10.20
2022-12-01T03:53:08.717Z,10.40
2022-12-01T03:55:19.782Z,9.88
2022-12-01T03:57:27.414Z,10.30
2022-12-01T03:59:30.633Z,9.55
2022-12-01T04:01:36.810Z,10.07
2022-12-01T04:03:38.802Z,9.70
2022-12-01T04:05:40.449Z,10.05
2022-12-01T04:07:42.115Z,9.68
2022-12-01T04:09:43.861Z,10.30
2022-12-01T04:12:04.082Z,10.15
2022-12-01T04:14:09.838Z,10.55
2022-12-01T04:16:12.531Z,10.80
2022-12-01T04:18:14.550Z,10.43
2022-12-01T04:20:17.814Z,10.27
2022-12-01T04:22:19.801Z,10.43
2022-12-01T04:24:21.324Z,9.38
2022-12-01T04:26:23.072Z,9.88
2022-12-01T04:28:24.797Z,10.55
2022-12-01T04:30:26.885Z,9.80
2022-12-01T04:32:28.573Z,10.07
2022-12-01T04:34:30.347Z,10.77
2022-12-01T04:36:33.975Z,10.15
2022-12-01T04:38:37.173Z,9.73
2022-12-01T04:40:39.030Z,10.82
2022-12-01T04:42:40.673Z,10.63
2022-12-01T04:44:42.344Z,10.07
2022-12-01T04:46:45.510Z,10.55
2022-12-01T04:48:47.259Z,10.48
2022-12-01T04:50:49.394Z,10.52
2022-12-01T04:52:54.226Z,9.93
2022-12-01T04:54:55.851Z,10.70
2022-12-01T04:56:57.527Z,10.32
2022-12-01T04:58:59.817Z,9.98
2022-12-01T05:01:12.565Z,10.90
2022-12-01T05:03:15.278Z,10.90
2022-12-01T05:05:17.290Z,10.32
2022-12-01T05:07:19.308Z,10.40
2022-12-01T05:09:21.436Z,10.27
2022-12-01T05:11:24.325Z,9.95
2022-12-01T05:13:26.423Z,9.68
2022-12-01T05:15:28.230Z,10.15
2022-12-01T05:17:36.737Z,9.88
2022-12-01T05:19:57.310Z,10.43
2022-12-01T05:21:59.018Z,10.32
2022-12-01T05:24:00.790Z,11.23
2022-12-01T05:26:03.806Z,10.88
2022-12-01T05:28:06.581Z,10.60
2022-12-01T05:30:08.616Z,11.50
2022-12-01T05:32:10.398Z,10.27
2022-12-01T05:34:11.975Z,11.00
2022-12-01T05:36:13.665Z,10.68
2022-12-01T05:38:15.671Z,10.25
2022-12-01T05:40:17.663Z,10.48
2022-12-01T05:42:19.274Z,10.35
2022-12-01T05:44:21.020Z,10.48
2022-12-01T05:46:23.439Z,11.60
2022-12-01T05:48:25.423Z,10.90
2022-12-01T05:50:28.857Z,10.82
2022-12-01T05:52:30.498Z,10.90
2022-12-01T05:54:32.066Z,10.80
2022-12-01T05:56:33.775Z,10.15
2022-12-01T05:58:35.963Z,10.50
2022-12-01T06:00:45.261Z,10.43
2022-12-01T06:02:47.928Z,10.15
2022-12-01T06:04:49.539Z,10.65
2022-12-01T06:06:51.547Z,10.50
2022-12-01T06:08:53.529Z,10.23
2022-12-01T06:10:55.245Z,10.95
2022-12-01T06:12:57.136Z,10.50
2022-12-01T06:14:58.922Z,11.35
2022-12-01T06:17:00.885Z,10.60
2022-12-01T06:19:02.614Z,11.63
2022-12-01T06:21:06.333Z,11.05
2022-12-01T06:23:08.041Z,12.15
2022-12-01T06:25:12.647Z,11.52
2022-12-01T06:27:14.482Z,10.77
2022-12-01T06:29:16.244Z,10.93
2022-12-01T06:31:17.860Z,10.95
2022-12-01T06:33:19.814Z,10.65
2022-12-01T06:35:21.496Z,10.20
2022-12-01T06:37:23.513Z,10.30
2022-12-01T06:39:25.177Z,10.13
2022-12-01T06:41:27.143Z,10.15
2022-12-01T06:43:29.095Z,10.27
2022-12-01T06:45:31.399Z,9.90
2022-12-01T06:47:33.143Z,10.57
2022-12-01T06:49:35.012Z,10.75
2022-12-01T06:51:36.774Z,9.93
2022-12-01T06:53:38.872Z,10.15
2022-12-01T06:55:40.661Z,10.82
2022-12-01T06:57:43.544Z,10.40
2022-12-01T06:59:45.485Z,9.60
2022-12-01T07:01:47.532Z,10.20
2022-12-01T07:03:50.287Z,10.52
2022-12-01T07:05:58.697Z,11.23
2022-12-01T07:08:01.246Z,10.82
2022-12-01T07:10:03.348Z,10.57
2022-12-01T07:12:05.996Z,9.63
2022-12-01T07:14:28.457Z,10.90
2022-12-01T07:16:30.732Z,10.43
2022-12-01T07:18:33.165Z,9.90
2022-12-01T07:20:34.629Z,10.52
2022-12-01T07:22:36.286Z,10.82
2022-12-01T07:24:37.849Z,10.65
2022-12-01T07:26:41.137Z,10.63
2022-12-01T07:28:43.619Z,10.98
2022-12-01T07:30:45.109Z,10.73
2022-12-01T07:32:46.764Z,10.70
2022-12-01T07:34:48.389Z,9.80
2022-12-01T07:36:49.893Z,11.05
2022-12-01T07:38:51.494Z,10.88
2022-12-01T07:40:53.141Z,11.48
2022-12-01T07:42:54.823Z,11.43
2022-12-01T07:44:56.402Z,10.93
2022-12-01T07:46:58.025Z,11.10
2022-12-01T07:49:00.408Z,10.95
2022-12-01T07:51:02.665Z,10.52
2022-12-01T07:53:04.564Z,10.90
2022-12-01T07:55:06.853Z,11.23
2022-12-01T07:57:08.548Z,10.55
2022-12-01T07:59:11.343Z,11.18
2022-12-01T08:01:15.969Z,11.07
2022-12-01T08:03:17.538Z,11.32
2022-12-01T08:05:19.478Z,10.68
2022-12-01T08:07:21.356Z,10.65
2022-12-01T08:09:24.070Z,11.50
2022-12-01T08:11:29.776Z,11.15
2022-12-01T08:13:31.787Z,10.85
2022-12-01T08:15:33.642Z,11.68
2022-12-01T08:17:35.133Z,11.73
2022-12-01T08:19:36.806Z,11.15
2022-12-01T08:21:38.552Z,10.65
2022-12-01T08:23:42.041Z,11.68
2022-12-01T08:25:43.986Z,10.88
2022-12-01T08:27:45.630Z,10.68
2022-12-01T08:29:47.428Z,11.05
2022-12-01T08:31:49.371Z,10.85
2022-12-01T08:33:52.316Z,10.13
2022-12-01T08:35:56.780Z,10.73
2022-12-01T08:37:58.354Z,10.50
2022-12-01T08:40:00.109Z,10.82
2022-12-01T08:42:02.108Z,10.82
2022-12-01T08:44:04.096Z,11.68
2022-12-01T08:46:06.901Z,10.70
2022-12-01T08:48:08.671Z,11.35
2022-12-01T08:50:11.159Z,11.38
2022-12-01T08:52:13.128Z,10.63
2022-12-01T08:54:15.090Z,10.00
2022-12-01T08:56:24.083Z,11.10
2022-12-01T08:58:26.056Z,11.25
2022-12-01T09:00:27.785Z,11.05
2022-12-01T09:02:29.677Z,11.23
2022-12-01T09:04:31.504Z,10.68
2022-12-01T09:06:37.583Z,10.55
2022-12-01T09:08:39.604Z,10.82
2022-12-01T09:10:41.390Z,10.73
2022-12-01T09:12:43.042Z,11.23
2022-12-01T09:14:49.819Z,11.02
2022-12-01T09:16:51.780Z,11.10
2022-12-01T09:18:54.812Z,10.57
2022-12-01T09:20:57.593Z,11.55
2022-12-01T09:22:59.260Z,11.30
2022-12-01T09:25:00.852Z,10.68
2022-12-01T09:27:03.472Z,11.15
2022-12-01T09:29:08.183Z,11.23
2022-12-01T09:31:15.127Z,10.80
2022-12-01T09:33:16.778Z,10.85
2022-12-01T09:35:23.058Z,10.38
2022-12-01T09:37:25.679Z,10.70
2022-12-01T09:39:28.429Z,10.65
2022-12-01T09:41:33.709Z,10.68
2022-12-01T09:43:46.542Z,10.57
2022-12-01T09:45:58.610Z,10.35
2022-12-01T09:48:06.352Z,11.68
2022-12-01T09:50:18.962Z,11.80
2022-12-01T09:52:23.160Z,11.90
2022-12-01T09:54:25.122Z,11.50
2022-12-01T09:56:29.068Z,10.75
2022-12-01T09:58:31.145Z,9.82
2022-12-01T10:00:38.030Z,11.88
2022-12-01T10:02:47.356Z,10.95
2022-12-01T10:04:52.304Z,10.80
2022-12-01T10:07:03.446Z,10.25
2022-12-01T10:09:17.305Z,11.68
2022-12-01T10:11:35.547Z,11.48
2022-12-01T10:13:37.412Z,10.57
2022-12-01T10:15:54.870Z,10.90
2022-12-01T10:18:15.224Z,10.05
2022-12-01T10:20:40.620Z,10.20
2022-12-01T10:22:53.019Z,10.02
2022-12-01T10:25:19.508Z,10.07
2022-12-01T10:27:50.804Z,10.10
2022-12-01T10:30:21.326Z,9.50
2022-12-01T10:32:33.249Z,9.60
2022-12-01T10:34:40.448Z,9.70
2022-12-01T10:36:42.145Z,10.27
2022-12-01T10:38:43.852Z,10.60
2022-12-01T10:40:46.086Z,9.73
2022-12-01T10:42:49.515Z,9.30
2022-12-01T10:44:51.848Z,8.95
2022-12-01T10:46:55.768Z,9.52
2022-12-01T10:49:08.122Z,9.55
2022-12-01T10:51:17.800Z,9.13
2022-12-01T10:53:22.568Z,10.38
2022-12-01T10:55:29.103Z,10.10
2022-12-01T10:57:31.904Z,10.25
2022-12-01T10:59:53.371Z,9.85
2022-12-01T11:01:57.719Z,10.70
2022-12-01T11:04:08.109Z,9.38
2022-12-01T11:06:11.223Z,9.05
2022-12-01T11:08:24.676Z,10.25
2022-12-01T11:10:32.403Z,9.85
2022-12-01T11:12:34.535Z,10.25
2022-12-01T11:14:54.261Z,10.02
2022-12-01T11:16:56.024Z,9.55
2022-12-01T11:19:09.038Z,10.27
2022-12-01T11:21:26.678Z,10.40
2022-12-01T11:23:29.871Z,9.80
2022-12-01T11:25:31.513Z,8.85
2022-12-01T11:27:48.345Z,9.75
2022-12-01T11:29:54.625Z,9.30
2022-12-01T11:31:58.194Z,9.18
2022-12-01T11:33:59.971Z,9.20
2022-12-01T11:36:01.761Z,10.15
2022-12-01T11:40:33.287Z,9.90
2022-12-01T11:42:37.042Z,9.45
2022-12-01T11:44:54.020Z,9.90
2022-12-01T11:47:21.625Z,9.23
2022-12-01T11:49:22.787Z,9.75
2022-12-01T11:51:32.027Z,8.90
2022-12-01T11:53:42.560Z,9.05
2022-12-01T11:55:44.266Z,8.82
2022-12-01T11:57:48.442Z,9.38
2022-12-01T11:59:50.426Z,9.48
2022-12-01T12:02:30.755Z,10.00
2022-12-01T12:04:56.638Z,9.20
2022-12-01T12:07:33.708Z,9.68
2022-12-01T12:10:32.646Z,9.38
2022-12-01T12:12:52.386Z,9.70
2022-12-01T12:15:11.565Z,9.40
2022-12-01T12:17:34.255Z,9.88
2022-12-01T12:20:07.292Z,9.80
2022-12-01T12:22:06.703Z,10.00
2022-12-01T12:24:17.267Z,9.75
2022-12-01T12:26:30.479Z,9.82
2022-12-01T12:29:07.083Z,9.75
2022-12-01T12:31:39.536Z,9.30
2022-12-01T12:34:14.124Z,9.13
2022-12-01T12:36:32.200Z,8.52
2022-12-01T12:38:52.220Z,9.70
2022-12-01T12:41:00.588Z,9.60
2022-12-01T12:43:20.174Z,8.88
2022-12-01T12:45:43.478Z,9.40
2022-12-01T12:48:01.491Z,9.50
2022-12-01T12:50:32.058Z,9.48
2022-12-01T12:52:37.133Z,9.75
2022-12-01T12:54:54.350Z,9.63
2022-12-01T12:57:06.663Z,9.25
2022-12-01T12:59:27.252Z,9.75
2022-12-01T13:01:36.178Z,9.75
2022-12-01T13:03:51.571Z,9.57
2022-12-01T13:06:05.292Z,9.43
2022-12-01T13:08:24.830Z,9.80
2022-12-01T13:10:44.963Z,9.50
2022-12-01T13:12:56.143Z,9.32
2022-12-01T13:15:20.555Z,10.45
2022-12-01T13:17:32.788Z,9.73
2022-12-01T13:19:39.178Z,9.68
2022-12-01T13:21:45.864Z,10.52
2022-12-01T13:23:49.412Z,10.02
2022-12-01T13:25:55.214Z,10.43
2022-12-01T13:28:00.384Z,10.55
2022-12-01T13:30:02.242Z,10.10
2022-12-01T13:32:06.215Z,9.93
2022-12-01T13:34:07.946Z,9.00
2022-12-01T13:36:45.022Z,9.43
2022-12-01T13:38:35.508Z,9.93
2022-12-01T13:40:37.385Z,9.75
2022-12-01T13:42:40.004Z,8.90
2022-12-01T13:44:44.747Z,10.32
2022-12-01T13:46:46.888Z,9.32
2022-12-01T13:48:48.873Z,10.00
2022-12-01T13:50:57.135Z,10.07
2022-12-01T13:53:19.158Z,10.07
2022-12-01T13:55:28.802Z,9.45
2022-12-01T13:57:35.259Z,9.70
2022-12-01T14:00:00.944Z,10.15
2022-12-01T14:02:19.845Z,10.00
2022-12-01T14:04:27.147Z,9.82
2022-12-01T14:06:46.383Z,9.50
2022-12-01T14:08:50.764Z,9.35
2022-12-01T14:11:04.454Z,8.05
2022-12-01T14:13:07.284Z,9.63
2022-12-01T14:15:24.307Z,9.65
2022-12-01T14:17:32.414Z,9.30
2022-12-01T14:19:52.245Z,9.32
2022-12-01T14:21:54.205Z,8.65
2022-12-01T14:24:05.035Z,9.40
2022-12-01T14:26:44.864Z,9.20
2022-12-01T14:29:08.754Z,9.00
2022-12-01T14:31:10.824Z,9.05
2022-12-01T14:33:40.379Z,9.73
2022-12-01T14:35:42.128Z,9.60
2022-12-01T14:37:47.738Z,8.70
2022-12-01T14:40:17.526Z,8.73
2022-12-01T14:42:57.870Z,8.07
2022-12-01T14:45:03.569Z,9.45
2022-12-01T14:47:17.601Z,9.45
2022-12-01T14:49:26.722Z,10.70
2022-12-01T14:51:34.473Z,10.40
2022-12-01T14:53:40.683Z,10.57
2022-12-01T14:55:50.681Z,10.98
2022-12-01T14:58:06.114Z,10.80
2022-12-01T15:00:14.362Z,11.35
2022-12-01T15:02:17.117Z,11.15
2022-12-01T15:04:19.817Z,10.18
2022-12-01T15:06:26.547Z,11.68
2022-12-01T15:09:10.385Z,11.18
2022-12-01T15:10:56.143Z,11.98
2022-12-01T15:12:57.978Z,12.25
2022-12-01T15:14:59.734Z,12.73
2022-12-01T15:17:05.051Z,13.02
2022-12-01T15:19:29.649Z,12.40
2022-12-01T15:21:32.063Z,12.18
2022-12-01T15:23:34.044Z,11.52
2022-12-01T15:25:37.008Z,11.10
2022-12-01T15:27:38.855Z,11.38
2022-12-01T15:29:47.276Z,11.18
2022-12-01T15:32:01.608Z,10.85
2022-12-01T15:34:06.169Z,10.68
2022-12-01T15:36:08.536Z,11.50
2022-12-01T15:38:19.228Z,12.38
2022-12-01T15:43:03.200Z,12.98
2022-12-01T15:45:22.642Z,12.18
2022-12-01T15:47:45.862Z,12.50
2022-12-01T15:49:49.082Z,11.35
2022-12-01T15:51:51.916Z,11.40
2022-12-01T15:53:59.183Z,9.90
2022-12-01T15:56:05.207Z,10.57
2022-12-01T15:58:09.568Z,9.63
2022-12-01T16:00:22.063Z,10.25
2022-12-01T16:02:29.880Z,10.30
2022-12-01T16:04:35.366Z,9.95
2022-12-01T16:06:39.269Z,10.57
2022-12-01T16:08:41.204Z,11.13
2022-12-01T16:10:45.067Z,10.98
2022-12-01T16:12:47.320Z,10.95
2022-12-01T16:15:13.617Z,12.18
2022-12-01T16:17:17.146Z,13.20
2022-12-01T16:19:18.723Z,13.02
2022-12-01T16:21:20.764Z,12.35
2022-12-01T16:23:30.484Z,11.70
2022-12-01T16:25:38.838Z,11.90
2022-12-01T16:27:41.173Z,11.20
2022-12-01T16:29:53.692Z,10.85
2022-12-01T16:32:19.361Z,10.18
2022-12-01T16:34:44.527Z,9.93
2022-12-01T16:36:45.108Z,9.60
2022-12-01T16:38:54.563Z,10.48
2022-12-01T16:41:01.180Z,9.52
2022-12-01T16:43:02.712Z,9.95
2022-12-01T16:45:05.834Z,9.60
2022-12-01T16:47:20.554Z,9.68
2022-12-01T16:49:22.862Z,9.93
2022-12-01T16:51:35.430Z,9.35
2022-12-01T16:53:49.564Z,10.27
2022-12-01T16:55:57.751Z,10.32
2022-12-01T16:57:59.392Z,10.15
2022-12-01T17:00:01.381Z,10.68
2022-12-01T17:02:03.088Z,11.10
2022-12-01T17:04:07.634Z,10.63
2022-12-01T17:06:15.965Z,12.05
2022-12-01T17:08:23.084Z,11.10
2022-12-01T17:10:25.263Z,13.02
2022-12-01T17:12:26.862Z,13.05
2022-12-01T17:14:33.532Z,12.13
2022-12-01T17:16:35.355Z,11.50
2022-12-01T17:18:39.843Z,11.43
2022-12-01T17:20:41.571Z,10.88
2022-12-01T17:22:43.486Z,10.65
2022-12-01T17:24:45.093Z,12.40
2022-12-01T17:26:46.668Z,12.18
2022-12-01T17:28:48.966Z,12.30
2022-12-01T17:30:50.656Z,12.02
2022-12-01T17:32:52.519Z,13.27
2022-12-01T17:34:54.556Z,13.70
2022-12-01T17:36:56.580Z,14.05
2022-12-01T17:38:58.923Z,14.32
2022-12-01T17:41:03.171Z,14.18
2022-12-01T17:43:07.305Z,14.55
2022-12-01T17:45:10.323Z,13.93
2022-12-01T17:47:12.656Z,12.43
2022-12-01T17:49:14.860Z,12.45
2022-12-01T17:51:16.744Z,12.43
2022-12-01T17:53:19.304Z,12.00
2022-12-01T17:55:21.222Z,11.70
2022-12-01T17:57:22.840Z,11.02
2022-12-01T17:59:24.557Z,11.57
2022-12-01T18:01:30.184Z,10.40
2022-12-01T18:03:32.997Z,11.35
2022-12-01T18:05:35.298Z,9.68
2022-12-01T18:07:39.531Z,9.98
2022-12-01T18:09:41.213Z,10.73
2022-12-01T18:11:43.183Z,10.63
2022-12-01T18:13:49.734Z,10.15
2022-12-01T18:15:51.602Z,9.98
2022-12-01T18:17:53.757Z,10.75
2022-12-01T18:19:55.495Z,10.57
2022-12-01T18:21:57.707Z,10.80
2022-12-01T18:24:03.032Z,10.88
2022-12-01T18:26:15.721Z,12.30
2022-12-01T18:28:18.431Z,11.90
2022-12-01T18:30:20.078Z,11.25
2022-12-01T18:32:21.902Z,10.65
2022-12-01T18:34:25.287Z,11.10
2022-12-01T18:36:26.782Z,11.05
2022-12-01T18:38:28.895Z,10.98
2022-12-01T18:40:36.358Z,10.32
2022-12-01T18:42:38.214Z,11.18
2022-12-01T18:44:43.010Z,10.52
2022-12-01T18:46:44.791Z,11.13
2022-12-01T18:48:49.388Z,10.93
2022-12-01T18:50:56.298Z,10.40
2022-12-01T18:53:01.065Z,9.80
2022-12-01T18:55:03.078Z,10.30
2022-12-01T18:57:04.852Z,10.02
2022-12-01T18:59:08.798Z,9.32
2022-12-01T19:01:22.400Z,9.57
2022-12-01T19:03:24.343Z,9.25
2022-12-01T19:05:26.595Z,9.30
2022-12-01T19:07:30.087Z,9.07
2022-12-01T19:09:33.083Z,9.35
2022-12-01T19:11:36.049Z,9.00
2022-12-01T19:13:38.000Z,9.35
2022-12-01T19:15:39.628Z,8.40
2022-12-01T19:17:41.367Z,8.77
2022-12-01T19:19:43.239Z,9.00
2022-12-01T19:21:45.365Z,9.02
2022-12-01T19:23:47.652Z,8.43
2022-12-01T19:25:49.535Z,8.30
2022-12-01T19:27:53.126Z,9.50
2022-12-01T19:29:58.004Z,11.02
2022-12-01T19:32:00.349Z,10.90
2022-12-01T19:34:04.076Z,11.20
2022-12-01T19:36:17.662Z,10.45
2022-12-01T19:38:19.318Z,11.80
2022-12-01T19:40:22.820Z,10.23
2022-12-01T19:42:24.498Z,9.68
2022-12-01T19:44:26.307Z,9.18
2022-12-01T19:46:28.911Z,9.73
2022-12-01T19:48:30.948Z,9.07
2022-12-01T19:50:36.641Z,8.45
2022-12-01T19:52:41.200Z,8.90
2022-12-01T19:54:44.749Z,8.68
2022-12-01T19:56:46.461Z,9.57
2022-12-01T19:58:48.209Z,8.93
2022-12-01T20:00:49.989Z,9.18
2022-12-01T20:02:52.286Z,8.75
2022-12-01T20:04:54.644Z,8.85
2022-12-01T20:06:56.922Z,9.80
2022-12-01T20:09:02.159Z,9.07
2022-12-01T20:11:05.516Z,8.95
2022-12-01T20:13:07.247Z,9.15
2022-12-01T20:15:09.437Z,9.32
2022-12-01T20:17:15.958Z,8.93
2022-12-01T20:19:17.781Z,9.57
2022-12-01T20:21:28.179Z,8.65
2022-12-01T20:23:29.936Z,9.10
2022-12-01T20:25:32.725Z,10.38
2022-12-01T20:27:35.603Z,11.20
2022-12-01T20:29:37.251Z,11.15
2022-12-01T20:31:40.601Z,11.18
2022-12-01T20:33:42.706Z,11.88
2022-12-01T20:35:44.298Z,11.65
2022-12-01T20:37:46.109Z,10.20
2022-12-01T20:39:47.839Z,9.77
2022-12-01T20:41:50.201Z,9.10
2022-12-01T20:43:51.976Z,8.90
2022-12-01T20:45:54.053Z,8.95
2022-12-01T20:47:55.717Z,8.90
2022-12-01T20:49:58.541Z,9.25
2022-12-01T20:52:00.612Z,8.73
2022-12-01T20:54:27.468Z,8.20
2022-12-01T20:56:26.863Z,8.75
2022-12-01T20:58:32.005Z,8.57
2022-12-01T21:00:39.167Z,8.65
2022-12-01T21:02:40.876Z,8.38
2022-12-01T21:04:42.483Z,8.63
2022-12-01T21:06:44.199Z,8.27
2022-12-01T21:08:47.703Z,9.45
2022-12-01T21:10:49.438Z,8.80
2022-12-01T21:13:16.321Z,8.68
2022-12-01T21:15:27.277Z,7.63
2022-12-01T21:17:36.583Z,7.95
2022-12-01T21:19:38.177Z,7.78
2022-12-01T21:21:41.457Z,7.70
2022-12-01T21:23:43.092Z,8.30
2022-12-01T21:25:45.000Z,8.63
2022-12-01T21:27:47.400Z,9.20
2022-12-01T21:29:50.113Z,9.18
2022-12-01T21:32:03.101Z,8.23
2022-12-01T21:34:21.748Z,9.00
2022-12-01T21:36:28.688Z,8.68
2022-12-01T21:38:31.995Z,9.70
2022-12-01T21:40:34.043Z,10.20
2022-12-01T21:42:36.571Z,9.10
2022-12-01T21:44:39.681Z,8.52
2022-12-01T21:46:42.547Z,9.13
2022-12-01T21:48:46.037Z,8.02
2022-12-01T21:50:52.371Z,8.85
2022-12-01T21:52:55.466Z,7.82
2022-12-01T21:55:23.362Z,8.30
2022-12-01T21:57:42.495Z,8.65
2022-12-01T21:59:48.349Z,7.72
2022-12-01T22:01:55.557Z,7.68
2022-12-01T22:04:02.418Z,8.50
2022-12-01T22:06:31.598Z,7.57
2022-12-01T22:08:40.323Z,7.40
2022-12-01T22:10:56.262Z,7.70
2022-12-01T22:12:57.942Z,8.57
2022-12-01T22:15:01.458Z,8.35
2022-12-01T22:17:06.264Z,8.52
2022-12-01T22:19:16.914Z,8.63
2022-12-01T22:21:31.663Z,8.35
2022-12-01T22:23:36.275Z,8.52
2022-12-01T22:25:37.985Z,8.93
2022-12-01T22:27:40.229Z,8.32
2022-12-01T22:29:44.969Z,9.25
2022-12-01T22:31:47.663Z,8.32
2022-12-01T22:34:03.627Z,8.32
2022-12-01T22:36:22.161Z,7.95
2022-12-01T22:38:32.889Z,8.30
2022-12-01T22:41:00.127Z,7.57
2022-12-01T22:43:21.763Z,7.75
2022-12-01T22:45:26.583Z,8.43
2022-12-01T22:47:32.731Z,8.15
2022-12-01T22:49:34.428Z,8.30
2022-12-01T22:51:51.130Z,7.97
2022-12-01T22:54:07.553Z,9.07
2022-12-01T22:56:37.292Z,7.75
2022-12-01T22:58:41.209Z,8.05
2022-12-01T23:00:42.829Z,8.68
2022-12-01T23:02:51.238Z,8.27
2022-12-01T23:04:58.710Z,8.32
2022-12-01T23:07:02.258Z,8.23
2022-12-01T23:09:03.912Z,8.57
2022-12-01T23:11:11.082Z,7.78
2022-12-01T23:13:21.116Z,8.75
2022-12-01T23:15:39.130Z,7.88
2022-12-01T23:17:41.062Z,8.10
2022-12-01T23:19:42.925Z,8.13
2022-12-01T23:21:44.767Z,8.25
2022-12-01T23:23:46.550Z,8.43
2022-12-01T23:25:50.311Z,8.77
2022-12-01T23:27:53.919Z,8.27
2022-12-01T23:29:55.959Z,8.07
2022-12-01T23:31:59.904Z,8.45
2022-12-01T23:34:01.884Z,7.90
2022-12-01T23:36:21.088Z,8.25
2022-12-01T23:38:36.318Z,8.52
2022-12-01T23:40:38.575Z,8.20
2022-12-01T23:42:40.744Z,8.48
2022-12-01T23:44:50.069Z,8.85
2022-12-01T23:46:58.539Z,8.57
2022-12-01T23:49:03.682Z,8.02
2022-12-01T23:51:23.266Z,9.07
2022-12-01T23:53:29.193Z,7.70
2022-12-01T23:55:31.397Z,8.18
2022-12-01T23:57:33.270Z,7.68
2022-12-01T23:59:37.763Z,8.45
